sensor_id;sensor_type;location;lat;lon;timestamp;temperature;humidity
23579;DHT22;11967;50.852;4.400;2023-07-02T00:01:50;19.60;99.90
23579;DHT22;11967;50.852;4.400;2023-07-02T00:04:16;19.60;99.90
23579;DHT22;11967;50.852;4.400;2023-07-02T00:06:43;19.60;99.90
23579;DHT22;11967;50.852;4.400;2023-07-02T00:09:10;19.60;99.90
23579;DHT22;11967;50.852;4.400;2023-07-02T00:11:41;19.60;99.90
23579;DHT22;11967;50.852;4.400;2023-07-02T00:14:08;19.60;99.90
23579;DHT22;11967;50.852;4.400;2023-07-02T00:16:35;19.50;99.90
23579;DHT22;11967;50.852;4.400;2023-07-02T00:19:01;19.50;99.90
23579;DHT22;11967;50.852;4.400;2023-07-02T00:21:27;19.50;99.90
23579;DHT22;11967;50.852;4.400;2023-07-02T00:23:56;19.50;99.90
23579;DHT22;11967;50.852;4.400;2023-07-02T00:26:25;19.50;99.90
23579;DHT22;11967;50.852;4.400;2023-07-02T00:28:53;19.50;99.90
23579;DHT22;11967;50.852;4.400;2023-07-02T00:31:18;19.60;99.90
23579;DHT22;11967;50.852;4.400;2023-07-02T00:33:44;19.50;99.90
23579;DHT22;11967;50.852;4.400;2023-07-02T00:36:10;19.50;99.90
23579;DHT22;11967;50.852;4.400;2023-07-02T00:38:45;19.40;99.90
23579;DHT22;11967;50.852;4.400;2023-07-02T00:41:11;19.40;99.90
23579;DHT22;11967;50.852;4.400;2023-07-02T00:43:37;19.40;99.90
23579;DHT22;11967;50.852;4.400;2023-07-02T00:46:18;19.40;99.90
23579;DHT22;11967;50.852;4.400;2023-07-02T00:48:48;19.50;99.90
23579;DHT22;11967;50.852;4.400;2023-07-02T00:51:16;19.50;99.90
23579;DHT22;11967;50.852;4.400;2023-07-02T00:53:43;19.50;99.90
23579;DHT22;11967;50.852;4.400;2023-07-02T00:56:09;19.40;99.90
23579;DHT22;11967;50.852;4.400;2023-07-02T00:58:38;19.40;99.90
23579;DHT22;11967;50.852;4.400;2023-07-02T01:01:06;19.40;99.90
23579;DHT22;11967;50.852;4.400;2023-07-02T01:03:33;19.40;99.90
23579;DHT22;11967;50.852;4.400;2023-07-02T01:05:59;19.40;99.90
23579;DHT22;11967;50.852;4.400;2023-07-02T01:08:24;19.40;99.90
23579;DHT22;11967;50.852;4.400;2023-07-02T01:10:50;19.30;99.90
23579;DHT22;11967;50.852;4.400;2023-07-02T01:13:19;19.40;99.90
23579;DHT22;11967;50.852;4.400;2023-07-02T01:15:47;19.40;99.90
23579;DHT22;11967;50.852;4.400;2023-07-02T01:18:14;19.40;99.90
23579;DHT22;11967;50.852;4.400;2023-07-02T01:20:41;19.40;99.90
23579;DHT22;11967;50.852;4.400;2023-07-02T01:23:07;19.30;99.90
23579;DHT22;11967;50.852;4.400;2023-07-02T01:25:34;19.40;99.90
23579;DHT22;11967;50.852;4.400;2023-07-02T01:28:02;19.30;99.90
23579;DHT22;11967;50.852;4.400;2023-07-02T01:30:28;19.30;99.90
23579;DHT22;11967;50.852;4.400;2023-07-02T01:32:54;19.20;99.90
23579;DHT22;11967;50.852;4.400;2023-07-02T01:35:20;19.20;99.90
23579;DHT22;11967;50.852;4.400;2023-07-02T01:37:45;19.20;99.90
23579;DHT22;11967;50.852;4.400;2023-07-02T01:40:11;19.20;99.90
23579;DHT22;11967;50.852;4.400;2023-07-02T01:42:37;19.30;99.90
23579;DHT22;11967;50.852;4.400;2023-07-02T01:45:06;19.30;99.90
23579;DHT22;11967;50.852;4.400;2023-07-02T01:47:32;19.40;99.90
23579;DHT22;11967;50.852;4.400;2023-07-02T01:49:59;19.30;99.90
23579;DHT22;11967;50.852;4.400;2023-07-02T01:52:25;19.30;99.90
23579;DHT22;11967;50.852;4.400;2023-07-02T01:54:51;19.30;99.90
23579;DHT22;11967;50.852;4.400;2023-07-02T01:57:17;19.30;99.90
23579;DHT22;11967;50.852;4.400;2023-07-02T01:59:44;19.20;99.90
23579;DHT22;11967;50.852;4.400;2023-07-02T02:02:11;19.20;99.90
23579;DHT22;11967;50.852;4.400;2023-07-02T02:04:38;19.30;99.90
23579;DHT22;11967;50.852;4.400;2023-07-02T02:07:04;19.30;99.90
23579;DHT22;11967;50.852;4.400;2023-07-02T02:09:30;19.20;99.90
23579;DHT22;11967;50.852;4.400;2023-07-02T02:11:57;19.20;99.90
23579;DHT22;11967;50.852;4.400;2023-07-02T02:14:23;19.20;99.90
23579;DHT22;11967;50.852;4.400;2023-07-02T02:16:48;19.10;99.90
23579;DHT22;11967;50.852;4.400;2023-07-02T02:19:14;19.20;99.90
23579;DHT22;11967;50.852;4.400;2023-07-02T02:21:41;19.10;99.90
23579;DHT22;11967;50.852;4.400;2023-07-02T02:24:07;19.20;99.90
23579;DHT22;11967;50.852;4.400;2023-07-02T02:26:33;19.20;99.90
23579;DHT22;11967;50.852;4.400;2023-07-02T02:29:02;19.20;99.90
23579;DHT22;11967;50.852;4.400;2023-07-02T02:31:29;19.20;99.90
23579;DHT22;11967;50.852;4.400;2023-07-02T02:33:56;19.10;99.90
23579;DHT22;11967;50.852;4.400;2023-07-02T02:36:22;19.20;99.90
23579;DHT22;11967;50.852;4.400;2023-07-02T02:38:49;19.10;99.90
23579;DHT22;11967;50.852;4.400;2023-07-02T02:41:14;19.10;99.90
23579;DHT22;11967;50.852;4.400;2023-07-02T02:43:43;19.10;99.90
23579;DHT22;11967;50.852;4.400;2023-07-02T02:49:13;19.10;99.90
23579;DHT22;11967;50.852;4.400;2023-07-02T02:51:38;19.00;99.90
23579;DHT22;11967;50.852;4.400;2023-07-02T02:54:05;19.00;99.90
23579;DHT22;11967;50.852;4.400;2023-07-02T02:56:31;19.00;99.90
23579;DHT22;11967;50.852;4.400;2023-07-02T02:58:57;18.90;99.90
23579;DHT22;11967;50.852;4.400;2023-07-02T03:01:24;19.00;99.90
23579;DHT22;11967;50.852;4.400;2023-07-02T03:04:17;19.00;99.90
23579;DHT22;11967;50.852;4.400;2023-07-02T03:06:42;19.20;99.90
23579;DHT22;11967;50.852;4.400;2023-07-02T03:09:08;19.10;99.90
23579;DHT22;11967;50.852;4.400;2023-07-02T03:11:34;19.00;99.90
23579;DHT22;11967;50.852;4.400;2023-07-02T03:13:59;19.00;99.90
23579;DHT22;11967;50.852;4.400;2023-07-02T03:16:25;19.00;99.90
23579;DHT22;11967;50.852;4.400;2023-07-02T03:18:51;19.00;99.90
23579;DHT22;11967;50.852;4.400;2023-07-02T03:21:16;19.00;99.90
23579;DHT22;11967;50.852;4.400;2023-07-02T03:23:42;18.90;99.90
23579;DHT22;11967;50.852;4.400;2023-07-02T03:26:09;18.90;99.90
23579;DHT22;11967;50.852;4.400;2023-07-02T03:28:35;18.90;99.90
23579;DHT22;11967;50.852;4.400;2023-07-02T03:31:01;18.90;99.90
23579;DHT22;11967;50.852;4.400;2023-07-02T03:33:27;18.90;99.90
23579;DHT22;11967;50.852;4.400;2023-07-02T03:36:04;18.80;99.90
23579;DHT22;11967;50.852;4.400;2023-07-02T03:38:32;18.90;99.90
23579;DHT22;11967;50.852;4.400;2023-07-02T03:40:57;18.90;99.90
23579;DHT22;11967;50.852;4.400;2023-07-02T03:43:23;18.90;99.90
23579;DHT22;11967;50.852;4.400;2023-07-02T03:45:52;18.90;99.90
23579;DHT22;11967;50.852;4.400;2023-07-02T03:48:17;19.00;99.90
23579;DHT22;11967;50.852;4.400;2023-07-02T03:50:43;19.00;99.90
23579;DHT22;11967;50.852;4.400;2023-07-02T03:53:09;19.00;99.90
23579;DHT22;11967;50.852;4.400;2023-07-02T03:55:35;18.90;99.90
23579;DHT22;11967;50.852;4.400;2023-07-02T03:58:01;18.80;99.90
23579;DHT22;11967;50.852;4.400;2023-07-02T04:00:29;18.80;99.90
23579;DHT22;11967;50.852;4.400;2023-07-02T04:02:56;18.80;99.90
23579;DHT22;11967;50.852;4.400;2023-07-02T04:05:23;18.80;99.90
23579;DHT22;11967;50.852;4.400;2023-07-02T04:07:48;18.80;99.90
23579;DHT22;11967;50.852;4.400;2023-07-02T04:10:14;18.70;99.90
23579;DHT22;11967;50.852;4.400;2023-07-02T04:12:40;18.70;99.90
23579;DHT22;11967;50.852;4.400;2023-07-02T04:15:15;18.60;99.90
23579;DHT22;11967;50.852;4.400;2023-07-02T04:17:40;18.50;99.90
23579;DHT22;11967;50.852;4.400;2023-07-02T04:20:06;18.60;99.90
23579;DHT22;11967;50.852;4.400;2023-07-02T04:22:33;18.60;99.90
23579;DHT22;11967;50.852;4.400;2023-07-02T04:25:30;18.50;99.90
23579;DHT22;11967;50.852;4.400;2023-07-02T04:28:19;18.50;99.90
23579;DHT22;11967;50.852;4.400;2023-07-02T04:30:45;18.40;99.90
23579;DHT22;11967;50.852;4.400;2023-07-02T04:33:15;18.50;99.90
23579;DHT22;11967;50.852;4.400;2023-07-02T04:35:40;18.60;99.90
23579;DHT22;11967;50.852;4.400;2023-07-02T04:38:06;18.60;99.90
23579;DHT22;11967;50.852;4.400;2023-07-02T04:40:32;18.60;99.90
23579;DHT22;11967;50.852;4.400;2023-07-02T04:42:58;18.60;99.90
23579;DHT22;11967;50.852;4.400;2023-07-02T04:45:25;18.50;99.90
23579;DHT22;11967;50.852;4.400;2023-07-02T04:47:51;18.50;99.90
23579;DHT22;11967;50.852;4.400;2023-07-02T04:50:20;18.50;99.90
23579;DHT22;11967;50.852;4.400;2023-07-02T04:52:46;18.50;99.90
23579;DHT22;11967;50.852;4.400;2023-07-02T04:55:11;18.50;99.90
23579;DHT22;11967;50.852;4.400;2023-07-02T04:57:37;18.50;99.90
23579;DHT22;11967;50.852;4.400;2023-07-02T05:00:04;18.60;99.90
23579;DHT22;11967;50.852;4.400;2023-07-02T05:02:33;18.60;99.90
23579;DHT22;11967;50.852;4.400;2023-07-02T05:05:00;18.50;99.90
23579;DHT22;11967;50.852;4.400;2023-07-02T05:07:26;18.60;99.90
23579;DHT22;11967;50.852;4.400;2023-07-02T05:09:51;18.50;99.90
23579;DHT22;11967;50.852;4.400;2023-07-02T05:12:18;18.50;99.90
23579;DHT22;11967;50.852;4.400;2023-07-02T05:14:44;18.50;99.90
23579;DHT22;11967;50.852;4.400;2023-07-02T05:17:10;18.50;99.90
23579;DHT22;11967;50.852;4.400;2023-07-02T05:19:36;18.60;99.90
23579;DHT22;11967;50.852;4.400;2023-07-02T05:22:02;18.70;99.90
23579;DHT22;11967;50.852;4.400;2023-07-02T05:24:28;18.60;99.90
23579;DHT22;11967;50.852;4.400;2023-07-02T05:26:54;18.60;99.90
23579;DHT22;11967;50.852;4.400;2023-07-02T05:29:19;18.70;99.90
23579;DHT22;11967;50.852;4.400;2023-07-02T05:34:49;18.70;99.90
23579;DHT22;11967;50.852;4.400;2023-07-02T05:37:15;18.70;99.90
23579;DHT22;11967;50.852;4.400;2023-07-02T05:39:41;18.80;99.90
23579;DHT22;11967;50.852;4.400;2023-07-02T05:42:07;18.90;99.90
23579;DHT22;11967;50.852;4.400;2023-07-02T05:44:32;18.90;99.90
23579;DHT22;11967;50.852;4.400;2023-07-02T05:46:58;18.80;99.90
23579;DHT22;11967;50.852;4.400;2023-07-02T05:49:25;18.70;99.90
23579;DHT22;11967;50.852;4.400;2023-07-02T05:51:52;18.80;99.90
23579;DHT22;11967;50.852;4.400;2023-07-02T05:54:17;18.70;99.90
23579;DHT22;11967;50.852;4.400;2023-07-02T05:56:43;18.80;99.90
23579;DHT22;11967;50.852;4.400;2023-07-02T05:59:23;18.70;99.90
23579;DHT22;11967;50.852;4.400;2023-07-02T06:01:51;18.70;99.90
23579;DHT22;11967;50.852;4.400;2023-07-02T06:04:16;18.70;99.90
23579;DHT22;11967;50.852;4.400;2023-07-02T06:06:42;18.70;99.90
23579;DHT22;11967;50.852;4.400;2023-07-02T06:09:08;18.80;99.90
23579;DHT22;11967;50.852;4.400;2023-07-02T06:11:34;18.80;99.90
23579;DHT22;11967;50.852;4.400;2023-07-02T06:14:00;18.80;99.90
23579;DHT22;11967;50.852;4.400;2023-07-02T06:16:26;18.80;99.90
23579;DHT22;11967;50.852;4.400;2023-07-02T06:18:53;18.80;99.90
23579;DHT22;11967;50.852;4.400;2023-07-02T06:21:18;18.80;99.90
23579;DHT22;11967;50.852;4.400;2023-07-02T06:23:45;18.70;99.90
23579;DHT22;11967;50.852;4.400;2023-07-02T06:26:11;18.80;99.90
23579;DHT22;11967;50.852;4.400;2023-07-02T06:28:37;18.80;99.90
23579;DHT22;11967;50.852;4.400;2023-07-02T06:31:03;18.80;99.90
23579;DHT22;11967;50.852;4.400;2023-07-02T06:33:29;19.00;99.90
23579;DHT22;11967;50.852;4.400;2023-07-02T06:35:54;19.00;99.90
23579;DHT22;11967;50.852;4.400;2023-07-02T06:38:20;19.00;99.90
23579;DHT22;11967;50.852;4.400;2023-07-02T06:40:46;19.00;99.90
23579;DHT22;11967;50.852;4.400;2023-07-02T06:43:11;19.00;99.90
23579;DHT22;11967;50.852;4.400;2023-07-02T06:45:41;19.00;99.90
23579;DHT22;11967;50.852;4.400;2023-07-02T06:48:10;19.20;99.90
23579;DHT22;11967;50.852;4.400;2023-07-02T06:50:35;19.20;99.90
23579;DHT22;11967;50.852;4.400;2023-07-02T06:53:10;19.20;99.90
23579;DHT22;11967;50.852;4.400;2023-07-02T06:55:38;19.20;99.90
23579;DHT22;11967;50.852;4.400;2023-07-02T06:58:07;19.20;99.90
23579;DHT22;11967;50.852;4.400;2023-07-02T07:00:34;19.20;99.90
23579;DHT22;11967;50.852;4.400;2023-07-02T07:03:04;19.20;99.90
23579;DHT22;11967;50.852;4.400;2023-07-02T07:05:30;19.30;99.90
23579;DHT22;11967;50.852;4.400;2023-07-02T07:07:57;19.40;99.90
23579;DHT22;11967;50.852;4.400;2023-07-02T07:10:23;19.40;99.90
23579;DHT22;11967;50.852;4.400;2023-07-02T07:12:48;19.50;99.90
23579;DHT22;11967;50.852;4.400;2023-07-02T07:15:14;19.50;99.90
23579;DHT22;11967;50.852;4.400;2023-07-02T07:17:40;19.60;99.90
23579;DHT22;11967;50.852;4.400;2023-07-02T07:20:15;19.70;99.90
23579;DHT22;11967;50.852;4.400;2023-07-02T07:22:41;19.70;99.90
23579;DHT22;11967;50.852;4.400;2023-07-02T07:25:08;19.70;99.90
23579;DHT22;11967;50.852;4.400;2023-07-02T07:27:33;19.70;99.90
23579;DHT22;11967;50.852;4.400;2023-07-02T07:29:59;19.70;99.90
23579;DHT22;11967;50.852;4.400;2023-07-02T07:32:25;19.50;99.90
23579;DHT22;11967;50.852;4.400;2023-07-02T07:34:50;19.50;99.90
23579;DHT22;11967;50.852;4.400;2023-07-02T07:37:16;19.50;99.90
23579;DHT22;11967;50.852;4.400;2023-07-02T07:39:42;19.30;99.90
23579;DHT22;11967;50.852;4.400;2023-07-02T07:42:07;19.50;99.90
23579;DHT22;11967;50.852;4.400;2023-07-02T07:44:33;19.60;99.90
23579;DHT22;11967;50.852;4.400;2023-07-02T07:46:59;19.60;99.90
23579;DHT22;11967;50.852;4.400;2023-07-02T07:49:25;19.70;99.90
23579;DHT22;11967;50.852;4.400;2023-07-02T07:51:50;20.00;99.90
23579;DHT22;11967;50.852;4.400;2023-07-02T07:54:17;20.00;99.90
23579;DHT22;11967;50.852;4.400;2023-07-02T07:56:43;20.10;99.90
23579;DHT22;11967;50.852;4.400;2023-07-02T07:59:10;20.10;99.90
23579;DHT22;11967;50.852;4.400;2023-07-02T08:01:38;20.00;99.90
23579;DHT22;11967;50.852;4.400;2023-07-02T08:04:04;20.10;99.90
23579;DHT22;11967;50.852;4.400;2023-07-02T08:06:32;20.30;99.90
23579;DHT22;11967;50.852;4.400;2023-07-02T08:08:59;20.40;99.90
23579;DHT22;11967;50.852;4.400;2023-07-02T08:11:25;20.30;99.90
23579;DHT22;11967;50.852;4.400;2023-07-02T08:13:50;20.20;99.90
23579;DHT22;11967;50.852;4.400;2023-07-02T08:16:16;20.20;99.90
23579;DHT22;11967;50.852;4.400;2023-07-02T08:18:41;20.20;99.90
23579;DHT22;11967;50.852;4.400;2023-07-02T08:21:07;20.30;99.90
23579;DHT22;11967;50.852;4.400;2023-07-02T08:23:33;20.40;99.90
23579;DHT22;11967;50.852;4.400;2023-07-02T08:26:11;20.40;99.90
23579;DHT22;11967;50.852;4.400;2023-07-02T08:28:37;20.50;99.90
23579;DHT22;11967;50.852;4.400;2023-07-02T08:31:04;20.30;99.90
23579;DHT22;11967;50.852;4.400;2023-07-02T08:33:30;20.40;99.90
23579;DHT22;11967;50.852;4.400;2023-07-02T08:35:56;20.50;99.90
23579;DHT22;11967;50.852;4.400;2023-07-02T08:38:23;20.80;99.90
23579;DHT22;11967;50.852;4.400;2023-07-02T08:40:49;21.00;99.90
23579;DHT22;11967;50.852;4.400;2023-07-02T08:43:15;21.10;99.90
23579;DHT22;11967;50.852;4.400;2023-07-02T08:45:41;21.20;99.90
23579;DHT22;11967;50.852;4.400;2023-07-02T08:48:08;21.20;99.90
23579;DHT22;11967;50.852;4.400;2023-07-02T08:50:34;21.10;99.90
23579;DHT22;11967;50.852;4.400;2023-07-02T08:52:59;21.10;99.90
23579;DHT22;11967;50.852;4.400;2023-07-02T08:55:25;21.00;99.90
23579;DHT22;11967;50.852;4.400;2023-07-02T08:57:56;21.00;99.90
23579;DHT22;11967;50.852;4.400;2023-07-02T09:00:26;21.00;99.90
23579;DHT22;11967;50.852;4.400;2023-07-02T09:02:52;21.00;99.90
23579;DHT22;11967;50.852;4.400;2023-07-02T09:05:18;21.00;99.90
23579;DHT22;11967;50.852;4.400;2023-07-02T09:07:47;21.10;99.90
23579;DHT22;11967;50.852;4.400;2023-07-02T09:10:33;21.10;99.90
23579;DHT22;11967;50.852;4.400;2023-07-02T09:13:06;21.00;99.90
23579;DHT22;11967;50.852;4.400;2023-07-02T09:15:36;21.10;99.90
23579;DHT22;11967;50.852;4.400;2023-07-02T09:18:02;21.10;99.90
23579;DHT22;11967;50.852;4.400;2023-07-02T09:20:34;21.20;99.90
23579;DHT22;11967;50.852;4.400;2023-07-02T09:23:00;21.40;99.90
23579;DHT22;11967;50.852;4.400;2023-07-02T09:25:40;21.40;99.90
23579;DHT22;11967;50.852;4.400;2023-07-02T09:30:55;21.10;99.90
23579;DHT22;11967;50.852;4.400;2023-07-02T09:33:24;20.90;99.90
23579;DHT22;11967;50.852;4.400;2023-07-02T09:35:50;20.70;99.90
23579;DHT22;11967;50.852;4.400;2023-07-02T09:38:23;20.70;99.90
23579;DHT22;11967;50.852;4.400;2023-07-02T09:40:51;20.80;99.90
23579;DHT22;11967;50.852;4.400;2023-07-02T09:43:17;20.90;99.90
23579;DHT22;11967;50.852;4.400;2023-07-02T09:45:46;20.90;99.90
23579;DHT22;11967;50.852;4.400;2023-07-02T09:48:15;20.90;99.90
23579;DHT22;11967;50.852;4.400;2023-07-02T09:50:45;20.90;99.90
23579;DHT22;11967;50.852;4.400;2023-07-02T09:53:12;20.90;99.90
23579;DHT22;11967;50.852;4.400;2023-07-02T09:55:46;20.80;99.90
23579;DHT22;11967;50.852;4.400;2023-07-02T09:58:14;20.90;99.90
23579;DHT22;11967;50.852;4.400;2023-07-02T10:00:40;20.80;99.90
23579;DHT22;11967;50.852;4.400;2023-07-02T10:03:11;20.60;99.90
23579;DHT22;11967;50.852;4.400;2023-07-02T10:05:37;20.60;99.90
23579;DHT22;11967;50.852;4.400;2023-07-02T10:08:16;20.60;99.90
23579;DHT22;11967;50.852;4.400;2023-07-02T10:10:46;20.70;99.90
23579;DHT22;11967;50.852;4.400;2023-07-02T10:13:12;20.80;99.90
23579;DHT22;11967;50.852;4.400;2023-07-02T10:15:40;20.80;99.90
23579;DHT22;11967;50.852;4.400;2023-07-02T10:18:07;20.90;99.90
23579;DHT22;11967;50.852;4.400;2023-07-02T10:20:34;20.90;99.90
23579;DHT22;11967;50.852;4.400;2023-07-02T10:23:00;20.90;99.90
23579;DHT22;11967;50.852;4.400;2023-07-02T10:25:31;21.00;99.90
23579;DHT22;11967;50.852;4.400;2023-07-02T10:27:58;20.90;99.90
23579;DHT22;11967;50.852;4.400;2023-07-02T10:30:32;21.00;99.90
23579;DHT22;11967;50.852;4.400;2023-07-02T10:33:15;20.90;99.90
23579;DHT22;11967;50.852;4.400;2023-07-02T10:35:44;20.80;99.90
23579;DHT22;11967;50.852;4.400;2023-07-02T10:38:20;20.80;99.90
23579;DHT22;11967;50.852;4.400;2023-07-02T10:40:46;20.80;99.90
23579;DHT22;11967;50.852;4.400;2023-07-02T10:43:13;20.80;99.90
23579;DHT22;11967;50.852;4.400;2023-07-02T10:45:40;20.70;99.90
23579;DHT22;11967;50.852;4.400;2023-07-02T10:48:09;20.70;99.90
23579;DHT22;11967;50.852;4.400;2023-07-02T10:50:35;20.90;99.90
23579;DHT22;11967;50.852;4.400;2023-07-02T10:53:01;20.90;99.90
23579;DHT22;11967;50.852;4.400;2023-07-02T10:55:28;21.00;99.90
23579;DHT22;11967;50.852;4.400;2023-07-02T10:58:07;21.10;99.90
23579;DHT22;11967;50.852;4.400;2023-07-02T11:00:50;21.30;99.90
23579;DHT22;11967;50.852;4.400;2023-07-02T11:03:23;21.40;99.90
23579;DHT22;11967;50.852;4.400;2023-07-02T11:05:50;21.50;99.90
23579;DHT22;11967;50.852;4.400;2023-07-02T11:08:16;21.50;99.90
23579;DHT22;11967;50.852;4.400;2023-07-02T11:10:42;21.40;99.90
23579;DHT22;11967;50.852;4.400;2023-07-02T11:13:15;21.50;99.90
23579;DHT22;11967;50.852;4.400;2023-07-02T11:15:41;21.70;99.90
23579;DHT22;11967;50.852;4.400;2023-07-02T11:18:15;21.80;99.90
23579;DHT22;11967;50.852;4.400;2023-07-02T11:20:42;21.90;99.90
23579;DHT22;11967;50.852;4.400;2023-07-02T11:23:22;21.80;99.90
23579;DHT22;11967;50.852;4.400;2023-07-02T11:25:58;21.70;99.90
23579;DHT22;11967;50.852;4.400;2023-07-02T11:28:24;21.80;99.90
23579;DHT22;11967;50.852;4.400;2023-07-02T11:30:50;21.90;99.90
23579;DHT22;11967;50.852;4.400;2023-07-02T11:33:16;22.00;99.90
23579;DHT22;11967;50.852;4.400;2023-07-02T11:35:44;22.00;99.90
23579;DHT22;11967;50.852;4.400;2023-07-02T11:38:10;22.00;99.90
23579;DHT22;11967;50.852;4.400;2023-07-02T11:40:36;21.90;99.90
23579;DHT22;11967;50.852;4.400;2023-07-02T11:43:02;22.00;99.90
23579;DHT22;11967;50.852;4.400;2023-07-02T11:45:28;21.90;99.90
23579;DHT22;11967;50.852;4.400;2023-07-02T11:47:54;21.80;99.90
23579;DHT22;11967;50.852;4.400;2023-07-02T11:50:20;21.80;99.90
23579;DHT22;11967;50.852;4.400;2023-07-02T11:52:45;21.70;99.90
23579;DHT22;11967;50.852;4.400;2023-07-02T11:55:11;21.70;99.90
23579;DHT22;11967;50.852;4.400;2023-07-02T11:57:44;21.70;99.90
23579;DHT22;11967;50.852;4.400;2023-07-02T12:00:15;21.80;99.90
23579;DHT22;11967;50.852;4.400;2023-07-02T12:02:40;21.90;99.90
23579;DHT22;11967;50.852;4.400;2023-07-02T12:05:06;21.80;99.90
23579;DHT22;11967;50.852;4.400;2023-07-02T12:07:33;21.80;99.90
23579;DHT22;11967;50.852;4.400;2023-07-02T12:09:59;21.90;99.90
23579;DHT22;11967;50.852;4.400;2023-07-02T12:12:24;22.00;99.90
23579;DHT22;11967;50.852;4.400;2023-07-02T12:14:50;21.90;99.90
23579;DHT22;11967;50.852;4.400;2023-07-02T12:17:15;21.90;99.90
23579;DHT22;11967;50.852;4.400;2023-07-02T12:19:41;22.00;99.90
23579;DHT22;11967;50.852;4.400;2023-07-02T12:22:10;22.10;99.90
23579;DHT22;11967;50.852;4.400;2023-07-02T12:24:35;22.20;99.90
23579;DHT22;11967;50.852;4.400;2023-07-02T12:27:02;22.20;99.90
23579;DHT22;11967;50.852;4.400;2023-07-02T12:29:28;22.30;99.90
23579;DHT22;11967;50.852;4.400;2023-07-02T12:34:53;22.40;99.90
23579;DHT22;11967;50.852;4.400;2023-07-02T12:37:18;22.60;99.90
23579;DHT22;11967;50.852;4.400;2023-07-02T12:39:46;22.60;99.90
23579;DHT22;11967;50.852;4.400;2023-07-02T12:42:22;22.60;99.90
23579;DHT22;11967;50.852;4.400;2023-07-02T12:45:05;22.80;99.90
23579;DHT22;11967;50.852;4.400;2023-07-02T12:47:31;22.90;99.90
23579;DHT22;11967;50.852;4.400;2023-07-02T12:49:57;22.90;99.90
23579;DHT22;11967;50.852;4.400;2023-07-02T12:52:25;22.60;99.90
23579;DHT22;11967;50.852;4.400;2023-07-02T12:54:55;22.50;99.90
23579;DHT22;11967;50.852;4.400;2023-07-02T12:57:21;22.40;99.90
23579;DHT22;11967;50.852;4.400;2023-07-02T12:59:46;22.50;99.90
23579;DHT22;11967;50.852;4.400;2023-07-02T13:02:18;22.50;99.90
23579;DHT22;11967;50.852;4.400;2023-07-02T13:04:44;22.60;99.90
23579;DHT22;11967;50.852;4.400;2023-07-02T13:07:09;22.50;99.90
23579;DHT22;11967;50.852;4.400;2023-07-02T13:09:41;22.50;99.90
23579;DHT22;11967;50.852;4.400;2023-07-02T13:12:08;22.60;99.90
23579;DHT22;11967;50.852;4.400;2023-07-02T13:14:34;22.60;99.90
23579;DHT22;11967;50.852;4.400;2023-07-02T13:17:00;22.60;99.90
23579;DHT22;11967;50.852;4.400;2023-07-02T13:19:26;22.60;99.90
23579;DHT22;11967;50.852;4.400;2023-07-02T13:21:54;22.60;99.90
23579;DHT22;11967;50.852;4.400;2023-07-02T13:24:19;22.70;99.90
23579;DHT22;11967;50.852;4.400;2023-07-02T13:26:46;22.80;99.90
23579;DHT22;11967;50.852;4.400;2023-07-02T13:29:12;22.80;99.90
23579;DHT22;11967;50.852;4.400;2023-07-02T13:31:37;22.80;99.90
23579;DHT22;11967;50.852;4.400;2023-07-02T13:34:03;22.80;99.90
23579;DHT22;11967;50.852;4.400;2023-07-02T13:36:28;22.90;99.90
23579;DHT22;11967;50.852;4.400;2023-07-02T13:38:54;22.90;99.90
23579;DHT22;11967;50.852;4.400;2023-07-02T13:41:20;22.90;99.90
23579;DHT22;11967;50.852;4.400;2023-07-02T13:43:46;22.90;99.90
23579;DHT22;11967;50.852;4.400;2023-07-02T13:46:12;22.90;99.90
23579;DHT22;11967;50.852;4.400;2023-07-02T13:48:38;22.90;99.90
23579;DHT22;11967;50.852;4.400;2023-07-02T13:51:04;22.90;99.90
23579;DHT22;11967;50.852;4.400;2023-07-02T13:53:31;22.90;99.90
23579;DHT22;11967;50.852;4.400;2023-07-02T13:55:57;22.90;99.90
23579;DHT22;11967;50.852;4.400;2023-07-02T13:58:23;22.80;99.90
23579;DHT22;11967;50.852;4.400;2023-07-02T14:00:49;22.80;99.90
23579;DHT22;11967;50.852;4.400;2023-07-02T14:03:15;22.80;99.90
23579;DHT22;11967;50.852;4.400;2023-07-02T14:05:40;22.70;99.90
23579;DHT22;11967;50.852;4.400;2023-07-02T14:08:12;22.60;99.90
23579;DHT22;11967;50.852;4.400;2023-07-02T14:10:38;22.40;99.90
23579;DHT22;11967;50.852;4.400;2023-07-02T14:13:03;22.20;99.90
23579;DHT22;11967;50.852;4.400;2023-07-02T14:15:31;22.20;99.90
23579;DHT22;11967;50.852;4.400;2023-07-02T14:17:57;22.10;99.90
23579;DHT22;11967;50.852;4.400;2023-07-02T14:20:22;22.20;99.90
23579;DHT22;11967;50.852;4.400;2023-07-02T14:22:48;22.00;99.90
23579;DHT22;11967;50.852;4.400;2023-07-02T14:25:14;22.00;99.90
23579;DHT22;11967;50.852;4.400;2023-07-02T14:27:39;22.00;99.90
23579;DHT22;11967;50.852;4.400;2023-07-02T14:30:07;22.10;99.90
23579;DHT22;11967;50.852;4.400;2023-07-02T14:32:34;22.20;99.90
23579;DHT22;11967;50.852;4.400;2023-07-02T14:35:04;22.40;99.90
23579;DHT22;11967;50.852;4.400;2023-07-02T14:37:49;22.50;99.90
23579;DHT22;11967;50.852;4.400;2023-07-02T14:40:16;22.40;99.90
23579;DHT22;11967;50.852;4.400;2023-07-02T14:42:42;22.40;99.90
23579;DHT22;11967;50.852;4.400;2023-07-02T14:45:09;22.40;99.90
23579;DHT22;11967;50.852;4.400;2023-07-02T14:47:36;22.50;99.90
23579;DHT22;11967;50.852;4.400;2023-07-02T14:50:04;22.50;99.90
23579;DHT22;11967;50.852;4.400;2023-07-02T14:52:30;22.40;99.90
23579;DHT22;11967;50.852;4.400;2023-07-02T14:54:56;22.50;99.90
23579;DHT22;11967;50.852;4.400;2023-07-02T14:57:25;22.40;99.90
23579;DHT22;11967;50.852;4.400;2023-07-02T14:59:51;22.40;99.90
23579;DHT22;11967;50.852;4.400;2023-07-02T15:02:17;22.40;99.90
23579;DHT22;11967;50.852;4.400;2023-07-02T15:04:44;22.40;99.90
23579;DHT22;11967;50.852;4.400;2023-07-02T15:07:10;22.50;99.90
23579;DHT22;11967;50.852;4.400;2023-07-02T15:09:36;22.50;99.90
23579;DHT22;11967;50.852;4.400;2023-07-02T15:15:25;22.60;99.90
23579;DHT22;11967;50.852;4.400;2023-07-02T15:17:53;22.50;99.90
23579;DHT22;11967;50.852;4.400;2023-07-02T15:23:01;22.50;99.90
23579;DHT22;11967;50.852;4.400;2023-07-02T15:25:31;22.60;99.90
23579;DHT22;11967;50.852;4.400;2023-07-02T15:27:59;22.70;99.90
23579;DHT22;11967;50.852;4.400;2023-07-02T15:30:24;22.80;99.90
23579;DHT22;11967;50.852;4.400;2023-07-02T15:32:54;22.90;99.90
23579;DHT22;11967;50.852;4.400;2023-07-02T15:35:22;22.90;99.90
23579;DHT22;11967;50.852;4.400;2023-07-02T15:37:49;22.80;99.90
23579;DHT22;11967;50.852;4.400;2023-07-02T15:40:15;22.70;99.90
23579;DHT22;11967;50.852;4.400;2023-07-02T15:42:41;22.70;99.90
23579;DHT22;11967;50.852;4.400;2023-07-02T15:45:07;22.70;99.90
23579;DHT22;11967;50.852;4.400;2023-07-02T15:47:33;22.60;99.90
23579;DHT22;11967;50.852;4.400;2023-07-02T15:49:59;22.50;99.90